Time;durP1;ratioP1;P1;durP2;ratioP2;P2;SDS_P1;SDS_P2;PMS_P1;PMS_P2;Temp;Humidity;BMP_temperature;BMP_pressure;BME280_temperature;BME280_humidity;BME280_pressure;Samples;Min_cycle;Max_cycle;Signal;HPM_P1;HPM_P2
2021/04/28 00:02:00;;;;;;;5.20;3.88;;;8.00;58.80;;;;;;5065822;28;20029;-61
2021/04/28 00:04:26;;;;;;;6.18;4.65;;;8.00;58.70;;;;;;5064017;28;20129;-64
2021/04/28 00:06:52;;;;;;;7.00;4.70;;;7.90;58.80;;;;;;5068062;28;20063;-60
2021/04/28 00:09:18;;;;;;;6.47;4.47;;;7.90;59.30;;;;;;5064581;28;20028;-66
2021/04/28 00:11:44;;;;;;;8.52;4.78;;;7.80;59.20;;;;;;5067964;28;20035;-60
2021/04/28 00:14:10;;;;;;;7.05;4.70;;;7.80;59.40;;;;;;5069838;28;20044;-62
2021/04/28 00:16:36;;;;;;;7.30;4.55;;;7.80;59.70;;;;;;5057081;28;20039;-63
2021/04/28 00:19:03;;;;;;;6.10;4.57;;;7.70;60.00;;;;;;5067147;28;20039;-61
2021/04/28 00:21:30;;;;;;;7.50;4.35;;;7.70;60.10;;;;;;5071036;28;20028;-64
2021/04/28 00:23:56;;;;;;;9.60;4.57;;;7.70;60.10;;;;;;5072348;28;20024;-62
2021/04/28 00:26:23;;;;;;;5.78;4.15;;;7.60;60.40;;;;;;5069028;28;20512;-63
2021/04/28 00:28:48;;;;;;;7.72;4.53;;;7.60;60.60;;;;;;5050700;28;20035;-61
2021/04/28 00:31:14;;;;;;;6.50;3.95;;;7.50;60.70;;;;;;5053552;28;20119;-63
2021/04/28 00:33:40;;;;;;;6.63;4.20;;;7.50;61.00;;;;;;5068044;28;20104;-62
2021/04/28 00:36:06;;;;;;;6.68;4.72;;;7.40;60.90;;;;;;5051840;28;20051;-64
2021/04/28 00:38:33;;;;;;;5.85;4.63;;;7.40;61.00;;;;;;5059967;28;20083;-62
2021/04/28 00:41:00;;;;;;;8.40;4.30;;;7.40;61.40;;;;;;5067617;28;20384;-62
2021/04/28 00:43:27;;;;;;;7.57;4.75;;;7.40;61.70;;;;;;5058029;28;20024;-61
2021/04/28 00:45:52;;;;;;;7.57;4.55;;;7.30;61.70;;;;;;5070025;28;20424;-60
2021/04/28 00:48:18;;;;;;;8.65;4.97;;;7.30;61.90;;;;;;5066730;28;20025;-67
2021/04/28 00:50:46;;;;;;;7.60;4.88;;;7.30;62.10;;;;;;5069231;28;20108;-62
2021/04/28 00:53:16;;;;;;;6.70;3.80;;;7.20;62.40;;;;;;5059967;28;20036;-63
2021/04/28 00:55:43;;;;;;;6.78;4.60;;;7.10;62.50;;;;;;5051119;28;20035;-62
2021/04/28 00:58:09;;;;;;;8.48;4.75;;;7.10;62.70;;;;;;5052064;28;20048;-61
2021/04/28 01:00:36;;;;;;;9.15;4.97;;;7.10;62.90;;;;;;5050844;28;20387;-62
2021/04/28 01:03:02;;;;;;;7.85;5.38;;;7.10;63.00;;;;;;5051611;28;20029;-61
2021/04/28 01:05:28;;;;;;;7.00;4.38;;;7.10;63.20;;;;;;5067906;28;20028;-64
2021/04/28 01:07:54;;;;;;;6.80;4.60;;;7.00;63.20;;;;;;5070939;28;20169;-60
2021/04/28 01:10:26;;;;;;;8.60;5.68;;;7.00;63.60;;;;;;5069442;28;20032;-64
2021/04/28 01:12:53;;;;;;;6.70;4.90;;;7.00;63.80;;;;;;5070913;28;20124;-63
2021/04/28 01:15:23;;;;;;;7.15;4.88;;;6.90;63.80;;;;;;5070900;28;20033;-65
2021/04/28 01:17:48;;;;;;;8.60;5.38;;;7.00;64.20;;;;;;5063130;28;20040;-61
2021/04/28 01:20:16;;;;;;;7.32;5.00;;;6.90;64.30;;;;;;5070489;28;20097;-61
2021/04/28 01:22:43;;;;;;;7.13;4.82;;;6.90;64.40;;;;;;5057570;28;20490;-59
2021/04/28 01:25:12;;;;;;;9.10;4.75;;;6.80;64.40;;;;;;5058963;28;20109;-63
2021/04/28 01:27:40;;;;;;;8.18;4.65;;;6.80;64.90;;;;;;5066996;28;20036;-61
2021/04/28 01:30:08;;;;;;;7.30;4.47;;;6.70;64.80;;;;;;5066508;28;20032;-62
2021/04/28 01:32:35;;;;;;;6.38;4.60;;;6.70;65.00;;;;;;5068228;28;20040;-62
2021/04/28 01:35:02;;;;;;;6.00;4.00;;;6.60;65.40;;;;;;5071046;28;20033;-63
2021/04/28 01:37:30;;;;;;;7.10;4.50;;;6.60;65.70;;;;;;5069264;28;20029;-62
2021/04/28 01:39:57;;;;;;;9.75;5.03;;;6.60;66.00;;;;;;5071101;28;20033;-60
2021/04/28 01:42:25;;;;;;;7.28;4.55;;;6.50;66.30;;;;;;5064234;28;20101;-65
2021/04/28 01:44:51;;;;;;;6.65;4.40;;;6.50;66.50;;;;;;5057800;28;20037;-61
2021/04/28 01:47:19;;;;;;;7.85;4.88;;;6.50;66.90;;;;;;5065055;28;20620;-61
2021/04/28 01:49:46;;;;;;;6.60;4.75;;;6.50;67.10;;;;;;5073728;28;20035;-61
2021/04/28 01:52:13;;;;;;;6.65;4.57;;;6.40;67.30;;;;;;5074989;28;20120;-62
2021/04/28 01:54:38;;;;;;;6.38;4.53;;;6.40;67.80;;;;;;5074000;28;20028;-61
2021/04/28 01:57:06;;;;;;;5.80;4.13;;;6.40;67.70;;;;;;5072726;28;20036;-61
2021/04/28 01:59:33;;;;;;;10.05;4.80;;;6.40;67.70;;;;;;5054357;28;20072;-62
2021/04/28 02:01:59;;;;;;;7.38;4.38;;;6.30;67.90;;;;;;5071903;28;20033;-61
2021/04/28 02:04:25;;;;;;;6.53;4.32;;;6.30;68.10;;;;;;5062015;28;20044;-63
2021/04/28 02:06:52;;;;;;;7.57;4.70;;;6.30;68.30;;;;;;5054841;28;20037;-62
2021/04/28 02:09:18;;;;;;;6.40;4.43;;;6.30;68.70;;;;;;5056118;28;20055;-60
2021/04/28 02:11:44;;;;;;;7.50;4.70;;;6.30;68.90;;;;;;5073721;28;20060;-61
2021/04/28 02:14:15;;;;;;;10.52;5.78;;;6.20;69.00;;;;;;5058742;28;20127;-60
2021/04/28 02:16:42;;;;;;;11.40;6.57;;;6.20;69.40;;;;;;5055437;28;20215;-63
2021/04/28 02:19:09;;;;;;;8.40;5.40;;;6.20;70.00;;;;;;5068759;28;20062;-63
2021/04/28 02:21:41;;;;;;;9.15;5.03;;;6.20;69.80;;;;;;5063060;28;20040;-65
2021/04/28 02:24:13;;;;;;;9.25;4.55;;;6.10;69.90;;;;;;5062846;28;20036;-60
2021/04/28 02:26:39;;;;;;;8.13;5.03;;;6.10;70.00;;;;;;5053628;28;20075;-63
2021/04/28 02:29:04;;;;;;;8.32;5.43;;;6.10;70.20;;;;;;5057144;28;20025;-62
2021/04/28 02:31:30;;;;;;;8.27;5.30;;;6.00;70.50;;;;;;5053792;28;20034;-61
2021/04/28 02:33:56;;;;;;;7.47;4.53;;;6.00;70.70;;;;;;5054564;28;20110;-63
2021/04/28 02:36:25;;;;;;;7.70;5.15;;;6.00;71.00;;;;;;5055020;28;20051;-65
2021/04/28 02:38:59;;;;;;;8.23;4.95;;;6.00;71.30;;;;;;5071422;28;20593;-59
2021/04/28 02:41:26;;;;;;;9.05;5.53;;;6.00;71.40;;;;;;5059388;28;20043;-65
2021/04/28 02:43:52;;;;;;;9.20;5.85;;;6.00;71.60;;;;;;5071304;28;20044;-63
2021/04/28 02:46:19;;;;;;;10.63;5.35;;;6.00;71.80;;;;;;5072726;28;20025;-64
2021/04/28 02:48:48;;;;;;;8.20;5.70;;;6.00;72.10;;;;;;5067690;28;20051;-62
2021/04/28 02:51:14;;;;;;;8.25;5.07;;;5.90;72.00;;;;;;5072357;28;20032;-62
2021/04/28 02:53:44;;;;;;;8.90;5.57;;;5.90;72.00;;;;;;5053229;28;20481;-64
2021/04/28 02:56:10;;;;;;;7.43;5.03;;;5.90;72.30;;;;;;5054256;28;20033;-60
2021/04/28 02:58:37;;;;;;;10.85;5.85;;;5.90;72.40;;;;;;5072575;28;20041;-61
2021/04/28 03:01:04;;;;;;;6.78;5.07;;;5.90;72.60;;;;;;5064959;28;20492;-62
2021/04/28 03:03:31;;;;;;;9.38;5.63;;;5.80;72.70;;;;;;5072153;28;20052;-63
2021/04/28 03:05:57;;;;;;;10.70;5.05;;;5.80;73.00;;;;;;5073757;28;20101;-63
2021/04/28 03:08:23;;;;;;;8.75;5.50;;;5.80;73.20;;;;;;5072952;28;20033;-65
2021/04/28 03:10:49;;;;;;;9.20;5.68;;;5.80;73.40;;;;;;5056739;28;20366;-62
2021/04/28 03:13:16;;;;;;;7.90;5.43;;;5.70;73.60;;;;;;5059634;28;20067;-61
2021/04/28 03:15:43;;;;;;;10.52;6.00;;;5.70;73.90;;;;;;5060889;28;20075;-61
2021/04/28 03:18:10;;;;;;;8.38;5.43;;;5.70;74.20;;;;;;5073025;28;20104;-62
2021/04/28 03:20:37;;;;;;;8.30;5.25;;;5.70;74.20;;;;;;5071893;28;20056;-62
2021/04/28 03:23:03;;;;;;;7.85;5.25;;;5.70;75.00;;;;;;5072611;28;20420;-62
2021/04/28 03:25:29;;;;;;;7.15;5.40;;;5.60;74.90;;;;;;5070344;28;20024;-63
2021/04/28 03:27:55;;;;;;;11.93;5.85;;;5.60;74.90;;;;;;5071518;28;20096;-62
2021/04/28 03:30:21;;;;;;;9.57;5.88;;;5.60;74.90;;;;;;5057942;28;20083;-66
2021/04/28 03:32:46;;;;;;;11.77;5.95;;;5.60;75.40;;;;;;5053831;28;20493;-62
2021/04/28 03:35:12;;;;;;;10.02;6.20;;;5.50;75.40;;;;;;5052132;28;20029;-63
2021/04/28 03:37:38;;;;;;;8.85;5.90;;;5.50;75.70;;;;;;5058178;28;20024;-64
2021/04/28 03:40:08;;;;;;;9.68;6.25;;;5.50;76.40;;;;;;5071153;28;20044;-63
2021/04/28 03:42:33;;;;;;;9.02;5.32;;;5.50;76.80;;;;;;5063138;28;20473;-62
2021/04/28 03:44:59;;;;;;;8.80;6.03;;;5.50;76.90;;;;;;5065108;28;20048;-62
2021/04/28 03:47:25;;;;;;;8.70;6.25;;;5.40;77.40;;;;;;5063997;28;20029;-65
2021/04/28 03:49:51;;;;;;;10.80;6.07;;;5.40;77.30;;;;;;5063232;28;20033;-61
2021/04/28 03:52:17;;;;;;;12.00;6.35;;;5.40;77.60;;;;;;5059925;28;20379;-62
2021/04/28 03:54:42;;;;;;;8.98;6.35;;;5.40;78.00;;;;;;5068227;28;20163;-62
2021/04/28 03:57:10;;;;;;;9.65;6.57;;;5.50;78.00;;;;;;5060523;28;20032;-63
2021/04/28 03:59:35;;;;;;;11.48;7.00;;;5.50;78.00;;;;;;5053375;28;20367;-62
2021/04/28 04:02:01;;;;;;;11.77;6.75;;;5.60;77.60;;;;;;5053329;28;20146;-61
2021/04/28 04:04:27;;;;;;;14.98;8.50;;;5.50;77.30;;;;;;5061081;28;20366;-65
2021/04/28 04:06:53;;;;;;;17.40;8.82;;;5.60;77.60;;;;;;5053380;28;20033;-59
2021/04/28 04:09:18;;;;;;;12.38;7.65;;;5.60;77.90;;;;;;5057168;28;20807;-60
2021/04/28 04:11:44;;;;;;;14.30;7.65;;;5.60;77.40;;;;;;5070844;28;20119;-61
2021/04/28 04:14:10;;;;;;;15.57;7.57;;;5.70;77.20;;;;;;5072247;28;20025;-64
2021/04/28 04:16:35;;;;;;;12.63;7.40;;;5.60;77.10;;;;;;5056537;28;20021;-64
2021/04/28 04:19:01;;;;;;;15.93;8.25;;;5.70;77.10;;;;;;5067001;28;20036;-61
2021/04/28 04:21:27;;;;;;;14.00;7.70;;;5.70;77.50;;;;;;5071437;28;20032;-66
2021/04/28 04:23:54;;;;;;;12.80;7.00;;;5.70;78.00;;;;;;5064973;28;20021;-63
2021/04/28 04:26:20;;;;;;;11.18;6.80;;;5.70;77.70;;;;;;5052183;28;20386;-64
2021/04/28 04:28:46;;;;;;;11.05;6.97;;;5.70;77.70;;;;;;5064485;28;20027;-61
2021/04/28 04:31:11;;;;;;;12.45;7.70;;;5.70;78.40;;;;;;5055297;28;20087;-63
2021/04/28 04:33:37;;;;;;;12.07;6.93;;;5.70;78.60;;;;;;5051589;28;20486;-62
2021/04/28 04:36:03;;;;;;;15.00;7.13;;;5.70;78.70;;;;;;5052364;28;20108;-62
2021/04/28 04:38:29;;;;;;;10.55;6.43;;;5.70;78.60;;;;;;5051146;28;20028;-64
2021/04/28 04:40:55;;;;;;;11.40;6.90;;;5.70;78.90;;;;;;5062819;28;20059;-61
2021/04/28 04:43:20;;;;;;;11.63;6.95;;;5.80;79.00;;;;;;5064734;28;20029;-63
2021/04/28 04:45:46;;;;;;;11.63;7.35;;;5.70;79.10;;;;;;5067968;28;20028;-64
2021/04/28 04:48:12;;;;;;;11.73;7.70;;;5.80;79.90;;;;;;5062804;28;20023;-62
2021/04/28 04:50:38;;;;;;;10.80;7.07;;;5.80;80.00;;;;;;5070361;28;20043;-62
2021/04/28 04:53:05;;;;;;;11.50;7.93;;;5.80;79.40;;;;;;5060043;28;20033;-63
2021/04/28 04:55:31;;;;;;;14.02;8.77;;;5.80;78.40;;;;;;5059337;28;20044;-63
2021/04/28 04:57:57;;;;;;;13.98;8.65;;;5.90;77.80;;;;;;5050012;28;20045;-59
2021/04/28 05:00:24;;;;;;;10.45;7.57;;;5.90;77.60;;;;;;5066484;28;20503;-62
2021/04/28 05:02:50;;;;;;;12.45;7.32;;;5.90;78.00;;;;;;5070506;28;20117;-63
2021/04/28 05:05:16;;;;;;;11.75;6.65;;;6.00;78.50;;;;;;5067995;28;20505;-63
2021/04/28 05:07:43;;;;;;;12.07;7.53;;;6.10;78.50;;;;;;5070247;28;20036;-62
2021/04/28 05:10:10;;;;;;;13.02;7.65;;;6.10;78.80;;;;;;5070703;28;20120;-64
2021/04/28 05:12:36;;;;;;;16.17;8.13;;;6.20;78.70;;;;;;5066822;28;20025;-60
2021/04/28 05:15:04;;;;;;;15.18;8.13;;;6.30;78.60;;;;;;5051047;28;20040;-62
2021/04/28 05:17:29;;;;;;;14.23;7.93;;;6.40;78.90;;;;;;5048840;28;20128;-65
2021/04/28 05:19:55;;;;;;;12.98;8.75;;;6.60;78.90;;;;;;5052741;28;20109;-67
2021/04/28 05:22:23;;;;;;;12.73;7.80;;;6.70;78.40;;;;;;5049972;28;20036;-62
2021/04/28 05:24:49;;;;;;;13.20;7.95;;;6.90;78.00;;;;;;5049331;28;20032;-60
2021/04/28 05:27:15;;;;;;;15.68;8.75;;;7.00;77.20;;;;;;5064239;28;20024;-64
2021/04/28 05:29:41;;;;;;;19.77;9.05;;;7.10;76.60;;;;;;5048646;28;20062;-60
2021/04/28 05:32:07;;;;;;;13.50;8.77;;;7.30;76.00;;;;;;5049296;28;20053;-63
2021/04/28 05:34:32;;;;;;;17.17;8.20;;;7.50;75.20;;;;;;5049094;28;20094;-62
2021/04/28 05:36:58;;;;;;;18.23;9.40;;;7.60;74.90;;;;;;5047889;28;20040;-61
2021/04/28 05:39:24;;;;;;;18.17;8.63;;;7.90;73.80;;;;;;5055431;28;20037;-62
2021/04/28 05:41:50;;;;;;;14.48;8.15;;;8.10;73.50;;;;;;5049308;28;20094;-61
2021/04/28 05:44:16;;;;;;;17.88;9.07;;;8.40;72.60;;;;;;5049620;28;20176;-64
2021/04/28 05:46:41;;;;;;;15.07;8.57;;;8.60;70.70;;;;;;5053060;28;20477;-63
2021/04/28 05:49:07;;;;;;;17.48;8.60;;;8.90;68.70;;;;;;5054860;28;20025;-63
2021/04/28 05:51:32;;;;;;;15.02;8.70;;;9.10;67.60;;;;;;5055006;28;20065;-62
2021/04/28 05:53:59;;;;;;;13.30;8.25;;;9.20;66.70;;;;;;5049437;28;20386;-65
2021/04/28 05:56:24;;;;;;;12.93;8.75;;;9.40;66.20;;;;;;5049288;28;20111;-61
2021/04/28 05:58:50;;;;;;;11.13;8.15;;;9.40;65.80;;;;;;5050157;28;20156;-62
2021/04/28 06:01:16;;;;;;;14.35;8.25;;;9.60;65.10;;;;;;5062154;28;20028;-62
2021/04/28 06:03:41;;;;;;;11.07;7.53;;;9.70;64.80;;;;;;5051980;28;20032;-59
2021/04/28 06:06:08;;;;;;;11.65;7.93;;;9.90;64.30;;;;;;5049372;28;20029;-62
2021/04/28 06:08:35;;;;;;;11.88;7.65;;;10.00;64.00;;;;;;5048213;28;20063;-62
2021/04/28 06:11:00;;;;;;;12.60;8.57;;;10.10;63.70;;;;;;5049277;28;20064;-69
2021/04/28 06:13:26;;;;;;;12.68;8.50;;;10.20;63.10;;;;;;5049558;28;20132;-72
2021/04/28 06:15:52;;;;;;;14.45;8.00;;;10.30;62.80;;;;;;5050511;28;20029;-70
2021/04/28 06:18:17;;;;;;;13.23;8.07;;;10.40;62.50;;;;;;5068826;28;20029;-70
2021/04/28 06:20:43;;;;;;;15.52;8.27;;;10.60;62.10;;;;;;5053722;28;20051;-70
2021/04/28 06:23:09;;;;;;;15.55;9.05;;;10.70;61.30;;;;;;5066897;28;20083;-60
2021/04/28 06:25:35;;;;;;;14.40;8.15;;;10.90;60.70;;;;;;5057891;28;20082;-60
2021/04/28 06:28:01;;;;;;;16.08;8.32;;;11.00;60.70;;;;;;5065468;28;20032;-63
2021/04/28 06:30:26;;;;;;;13.57;8.70;;;11.00;60.60;;;;;;5070870;28;20037;-65
2021/04/28 06:32:52;;;;;;;13.70;8.00;;;11.20;60.20;;;;;;5053758;28;20083;-61
2021/04/28 06:35:18;;;;;;;11.13;7.90;;;11.20;59.80;;;;;;5064935;28;20466;-63
2021/04/28 06:37:44;;;;;;;11.65;7.97;;;11.40;59.60;;;;;;5068340;28;20028;-61
2021/04/28 06:40:11;;;;;;;14.48;8.98;;;11.50;59.50;;;;;;5068984;28;20114;-61
2021/04/28 06:42:37;;;;;;;12.65;7.90;;;11.60;59.40;;;;;;5072241;28;20037;-63
2021/04/28 06:45:06;;;;;;;15.57;8.43;;;11.80;59.40;;;;;;5060285;28;20438;-63
2021/04/28 06:47:32;;;;;;;14.53;8.57;;;11.90;59.80;;;;;;5055114;28;20025;-64
2021/04/28 06:49:58;;;;;;;17.08;8.93;;;12.00;59.10;;;;;;5053658;28;20278;-61
2021/04/28 06:52:23;;;;;;;20.13;9.27;;;12.20;58.90;;;;;;5055389;28;20416;-62
2021/04/28 06:54:50;;;;;;;19.27;8.43;;;12.20;58.70;;;;;;5053235;28;20051;-63
2021/04/28 06:57:15;;;;;;;16.85;9.07;;;12.20;58.70;;;;;;5068653;28;20021;-61
2021/04/28 06:59:41;;;;;;;14.43;9.75;;;12.40;58.60;;;;;;5060032;28;20418;-64
2021/04/28 07:02:07;;;;;;;13.88;8.85;;;12.50;59.20;;;;;;5054640;28;20029;-60
2021/04/28 07:04:34;;;;;;;15.55;9.27;;;12.60;58.30;;;;;;5056873;28;20024;-63
2021/04/28 07:06:59;;;;;;;16.35;9.25;;;12.60;57.80;;;;;;5054493;28;20033;-63
2021/04/28 07:09:25;;;;;;;21.40;8.90;;;12.60;58.10;;;;;;5057479;28;20082;-63
2021/04/28 07:11:51;;;;;;;22.17;9.50;;;12.60;57.70;;;;;;5070865;28;20060;-63
2021/04/28 07:14:16;;;;;;;19.48;9.13;;;12.80;57.80;;;;;;5060964;28;20521;-63
2021/04/28 07:16:44;;;;;;;20.80;9.25;;;12.90;57.50;;;;;;5059683;28;20024;-61
2021/04/28 07:19:10;;;;;;;15.20;8.82;;;13.00;56.50;;;;;;5068386;28;20028;-63
2021/04/28 07:21:37;;;;;;;18.20;9.25;;;13.10;56.50;;;;;;5071764;28;20116;-63
2021/04/28 07:24:04;;;;;;;15.95;9.32;;;13.20;56.70;;;;;;5072847;28;20082;-63
2021/04/28 07:26:30;;;;;;;16.55;9.60;;;13.30;56.60;;;;;;5050432;28;20032;-66
2021/04/28 07:28:56;;;;;;;19.05;9.82;;;13.40;56.20;;;;;;5066092;28;20027;-63
2021/04/28 07:31:22;;;;;;;24.10;9.63;;;13.50;55.70;;;;;;5072295;28;20028;-63
2021/04/28 07:33:48;;;;;;;21.83;9.50;;;13.50;55.30;;;;;;5059929;28;20043;-64
2021/04/28 07:36:14;;;;;;;16.83;9.13;;;13.60;54.90;;;;;;5068807;28;20242;-63
2021/04/28 07:38:40;;;;;;;15.45;9.80;;;13.80;54.70;;;;;;5062968;28;20032;-63
2021/04/28 07:41:06;;;;;;;16.65;10.02;;;13.90;54.70;;;;;;5067172;28;20474;-62
2021/04/28 07:43:32;;;;;;;14.00;9.43;;;14.00;54.30;;;;;;5071326;28;20028;-66
2021/04/28 07:45:58;;;;;;;19.15;9.80;;;14.00;54.40;;;;;;5070753;28;20029;-63
2021/04/28 07:48:24;;;;;;;25.10;10.40;;;14.10;54.50;;;;;;5064592;28;20024;-64
2021/04/28 07:50:50;;;;;;;21.40;11.07;;;14.20;53.60;;;;;;5071818;28;20041;-62
2021/04/28 07:53:15;;;;;;;16.90;9.90;;;14.30;53.70;;;;;;5056880;28;20390;-62
2021/04/28 07:55:45;;;;;;;19.15;10.75;;;14.40;54.20;;;;;;5062259;28;20078;-63
2021/04/28 07:58:11;;;;;;;18.55;10.65;;;14.50;53.80;;;;;;5056489;28;20040;-63
2021/04/28 08:00:36;;;;;;;26.55;11.15;;;14.60;52.90;;;;;;5059380;28;20036;-62
2021/04/28 08:03:02;;;;;;;25.23;11.13;;;14.70;53.00;;;;;;5055414;28;20028;-62
2021/04/28 08:05:28;;;;;;;20.35;10.80;;;14.70;52.30;;;;;;5067771;28;20074;-63
2021/04/28 08:07:54;;;;;;;21.67;12.10;;;14.70;53.00;;;;;;5068597;28;20032;-63
2021/04/28 08:10:20;;;;;;;17.92;10.52;;;14.80;52.00;;;;;;5071701;28;20083;-65
2021/04/28 08:12:45;;;;;;;18.00;10.60;;;14.90;52.60;;;;;;5068700;28;20051;-63
2021/04/28 08:15:12;;;;;;;20.98;10.60;;;15.00;52.50;;;;;;5069669;28;20028;-63
2021/04/28 08:17:41;;;;;;;23.27;11.60;;;15.00;52.00;;;;;;5067130;28;20036;-63
2021/04/28 08:20:09;;;;;;;21.75;10.00;;;15.20;51.70;;;;;;5071886;28;20080;-62
2021/04/28 08:22:34;;;;;;;20.83;10.20;;;15.30;52.30;;;;;;5069837;28;20025;-65
2021/04/28 08:25:01;;;;;;;19.23;11.20;;;15.40;51.70;;;;;;5062650;28;21497;-62
2021/04/28 08:27:27;;;;;;;19.50;11.82;;;15.60;50.90;;;;;;5069493;28;20033;-62
2021/04/28 08:29:53;;;;;;;19.17;11.07;;;15.70;51.30;;;;;;5051249;28;20036;-64
2021/04/28 08:32:19;;;;;;;23.98;11.60;;;15.80;51.30;;;;;;5059495;28;20162;-64
2021/04/28 08:34:45;;;;;;;18.65;11.32;;;15.90;50.40;;;;;;5067683;28;20033;-64
2021/04/28 08:37:11;;;;;;;21.13;12.05;;;16.00;50.40;;;;;;5052089;28;20033;-63
2021/04/28 08:39:37;;;;;;;19.45;11.02;;;16.20;50.90;;;;;;5051349;28;20104;-64
2021/04/28 08:42:03;;;;;;;21.77;11.98;;;16.40;50.50;;;;;;5055602;28;20489;-64
2021/04/28 08:44:30;;;;;;;21.20;12.43;;;16.50;49.20;;;;;;5064302;28;20532;-64
2021/04/28 08:46:56;;;;;;;26.25;12.73;;;16.50;49.30;;;;;;5066877;28;20032;-64
2021/04/28 08:49:22;;;;;;;22.40;11.88;;;16.60;49.60;;;;;;5052806;28;20122;-63
2021/04/28 08:51:48;;;;;;;21.77;11.23;;;16.70;49.50;;;;;;5063587;28;20497;-64
2021/04/28 08:54:14;;;;;;;24.25;12.98;;;16.90;49.10;;;;;;5070092;28;20028;-65
2021/04/28 08:56:48;;;;;;;19.20;11.90;;;17.10;50.10;;;;;;5051224;28;20029;-64
2021/04/28 08:59:14;;;;;;;20.23;11.95;;;17.10;48.90;;;;;;5068773;28;20076;-63
2021/04/28 09:01:41;;;;;;;21.13;12.98;;;17.30;48.60;;;;;;5060745;28;20423;-64
2021/04/28 09:04:15;;;;;;;19.33;11.80;;;17.40;47.90;;;;;;5059850;28;20032;-63
2021/04/28 09:06:42;;;;;;;22.90;12.68;;;17.50;47.30;;;;;;5066173;28;20024;-64
2021/04/28 09:09:11;;;;;;;19.45;11.52;;;17.60;47.60;;;;;;5067638;28;20078;-63
2021/04/28 09:11:54;;;;;;;32.67;13.52;;;17.70;47.10;;;;;;5050928;28;20454;-66
2021/04/28 09:14:33;;;;;;;21.38;12.18;;;17.80;47.00;;;;;;5058542;28;20025;-64
2021/04/28 09:17:03;;;;;;;22.17;12.30;;;18.00;46.40;;;;;;5050848;28;20025;-65
2021/04/28 09:22:06;;;;;;;16.80;11.93;;;18.20;46.50;;;;;;5059838;28;20485;-64
2021/04/28 09:24:52;;;;;;;25.33;13.23;;;18.30;47.70;;;;;;5052579;28;20163;-63
2021/04/28 09:27:40;;;;;;;22.20;11.70;;;18.50;45.80;;;;;;5068980;28;20025;-63
2021/04/28 09:30:08;;;;;;;20.70;11.90;;;18.60;44.40;;;;;;5051329;28;20029;-62
2021/04/28 09:32:38;;;;;;;23.75;12.15;;;18.80;44.60;;;;;;5052077;28;20470;-65
2021/04/28 09:35:18;;;;;;;15.88;11.05;;;18.90;44.60;;;;;;5070410;28;20082;-62
2021/04/28 09:37:51;;;;;;;24.10;11.80;;;;;;;;;;5070099;28;20460;-61
2021/04/28 09:40:20;;;;;;;25.08;11.68;;;;;;;;;;5061933;28;20282;-62
2021/04/28 09:42:58;;;;;;;21.88;11.65;;;19.50;42.40;;;;;;5054620;28;20017;-63
2021/04/28 09:45:46;;;;;;;31.80;12.88;;;19.70;42.90;;;;;;5061172;28;20037;-64
2021/04/28 09:48:21;;;;;;;26.73;13.52;;;19.80;43.30;;;;;;5056122;28;20029;-63
2021/04/28 09:50:47;;;;;;;21.27;13.02;;;19.80;42.70;;;;;;5053908;28;20094;-64
2021/04/28 09:53:26;;;;;;;22.80;13.30;;;19.80;41.80;;;;;;5061995;28;20048;-63
2021/04/28 09:55:52;;;;;;;25.85;12.68;;;19.80;41.00;;;;;;5068687;28;20101;-63
2021/04/28 09:58:21;;;;;;;22.15;11.93;;;19.90;40.80;;;;;;5068935;28;20048;-63
2021/04/28 10:01:00;;;;;;;21.50;13.10;;;19.90;40.50;;;;;;5067205;28;20032;-63
2021/04/28 10:03:43;;;;;;;20.05;12.40;;;20.00;40.60;;;;;;5059253;28;20025;-61
2021/04/28 10:06:09;;;;;;;21.80;13.95;;;20.10;40.90;;;;;;5074082;28;20025;-63
2021/04/28 10:08:35;;;;;;;21.55;11.13;;;20.20;41.10;;;;;;5074715;28;20028;-63
2021/04/28 10:11:00;;;;;;;20.00;11.80;;;20.30;39.10;;;;;;5055805;28;20098;-64
2021/04/28 10:13:26;;;;;;;20.80;11.02;;;20.40;38.20;;;;;;5073474;28;20035;-63
2021/04/28 10:15:52;;;;;;;19.42;10.02;;;20.40;37.20;;;;;;5072405;28;20039;-63
2021/04/28 10:18:21;;;;;;;20.85;10.88;;;20.50;36.60;;;;;;5072538;28;20452;-63
2021/04/28 10:20:49;;;;;;;16.45;10.75;;;20.60;36.50;;;;;;5071510;28;20119;-62
2021/04/28 10:23:16;;;;;;;15.43;10.02;;;20.80;35.90;;;;;;5073641;28;20783;-63
2021/04/28 10:25:46;;;;;;;13.77;9.32;;;20.70;35.70;;;;;;5072663;28;20028;-63
2021/04/28 10:28:12;;;;;;;12.90;8.88;;;20.80;35.00;;;;;;5069198;28;20032;-62
2021/04/28 10:30:44;;;;;;;17.48;8.90;;;20.90;34.60;;;;;;5053889;28;20482;-66
2021/04/28 10:33:17;;;;;;;12.30;8.48;;;20.90;34.10;;;;;;5061947;28;20025;-65
2021/04/28 10:35:43;;;;;;;12.65;8.93;;;21.00;33.70;;;;;;5063758;28;20118;-64
2021/04/28 10:38:09;;;;;;;12.15;8.45;;;21.10;33.10;;;;;;5072137;28;20045;-63
2021/04/28 10:40:36;;;;;;;10.65;7.97;;;21.20;33.30;;;;;;5073042;28;20044;-65
2021/04/28 10:43:10;;;;;;;13.18;8.98;;;21.50;33.70;;;;;;5053316;28;20063;-65
2021/04/28 10:45:37;;;;;;;13.80;8.38;;;21.70;32.70;;;;;;5054727;28;20083;-64
2021/04/28 10:48:07;;;;;;;15.85;8.98;;;21.80;34.10;;;;;;5066318;28;20028;-64
2021/04/28 10:50:45;;;;;;;12.43;9.80;;;21.90;31.50;;;;;;5072428;28;20037;-66
2021/04/28 10:53:17;;;;;;;13.55;8.38;;;21.80;33.70;;;;;;5072063;28;20090;-63
2021/04/28 10:55:54;;;;;;;13.60;7.97;;;21.60;31.70;;;;;;5063150;28;20053;-66
2021/04/28 10:58:29;;;;;;;12.30;8.75;;;21.30;32.20;;;;;;5056377;28;20120;-65
2021/04/28 11:01:07;;;;;;;14.43;8.55;;;21.00;32.30;;;;;;5063020;28;20033;-66
2021/04/28 11:03:55;;;;;;;15.55;8.52;;;20.90;32.60;;;;;;5059220;28;20079;-65
2021/04/28 11:06:24;;;;;;;11.48;6.70;;;20.80;33.20;;;;;;5071853;28;20245;-62
2021/04/28 11:08:56;;;;;;;14.65;7.60;;;21.00;32.60;;;;;;5070809;28;20033;-66
2021/04/28 11:14:08;;;;;;;11.52;6.97;;;21.30;31.90;;;;;;5071692;28;20033;-66
2021/04/28 11:16:48;;;;;;;15.05;7.28;;;21.50;31.50;;;;;;5054845;28;20378;-65
2021/04/28 11:19:16;;;;;;;14.43;7.40;;;21.60;31.30;;;;;;5058750;28;20807;-65
2021/04/28 11:21:43;;;;;;;14.73;8.15;;;21.80;31.00;;;;;;5070880;28;20028;-69
2021/04/28 11:24:10;;;;;;;17.50;7.72;;;22.30;30.50;;;;;;5070084;28;20020;-65
2021/04/28 11:26:38;;;;;;;14.30;8.10;;;22.30;30.00;;;;;;5065113;28;20373;-65
2021/04/28 11:29:06;;;;;;;12.93;7.30;;;22.10;30.30;;;;;;5071911;28;20123;-65
2021/04/28 11:31:50;;;;;;;9.70;7.63;;;21.80;30.90;;;;;;5067429;28;20364;-63
2021/04/28 11:34:27;;;;;;;13.55;6.90;;;21.80;32.30;;;;;;5062340;28;20060;-64
2021/04/28 11:36:56;;;;;;;10.70;7.15;;;21.60;31.90;;;;;;5072068;28;20454;-66
2021/04/28 11:39:34;;;;;;;10.20;6.97;;;21.50;31.40;;;;;;5060744;28;20098;-66
2021/04/28 11:42:19;;;;;;;13.88;6.40;;;21.40;31.80;;;;;;5053102;28;20060;-65
2021/04/28 11:44:52;;;;;;;13.02;6.97;;;21.40;31.60;;;;;;5060165;28;20094;-60
2021/04/28 11:47:27;;;;;;;8.75;6.45;;;21.40;31.50;;;;;;5057539;28;20025;-65
2021/04/28 11:49:55;;;;;;;10.15;6.10;;;21.50;31.90;;;;;;5060547;28;20040;-62
2021/04/28 11:52:23;;;;;;;8.00;5.97;;;21.40;31.40;;;;;;5060464;28;20049;-65
2021/04/28 11:54:56;;;;;;;11.25;6.85;;;21.40;32.10;;;;;;5062524;28;20032;-65
2021/04/28 11:57:32;;;;;;;9.18;5.85;;;21.40;30.80;;;;;;5072025;28;20025;-65
2021/04/28 12:00:10;;;;;;;10.07;6.55;;;21.60;31.50;;;;;;5064300;28;20056;-65
2021/04/28 12:02:36;;;;;;;15.63;6.57;;;22.00;30.70;;;;;;5056492;28;20048;-65
2021/04/28 12:05:03;;;;;;;15.95;6.93;;;22.50;30.30;;;;;;5071646;28;20293;-64
2021/04/28 12:07:29;;;;;;;8.05;7.15;;;23.10;30.90;;;;;;5071444;28;20050;-64
2021/04/28 12:09:55;;;;;;;12.93;7.63;;;23.60;29.90;;;;;;5053943;28;20467;-64
2021/04/28 12:12:25;;;;;;;12.70;7.90;;;23.50;29.50;;;;;;5059366;28;20070;-66
2021/04/28 12:15:14;;;;;;;10.40;6.55;;;23.00;29.30;;;;;;5056804;28;20025;-64
2021/04/28 12:17:42;;;;;;;9.70;6.57;;;23.10;29.70;;;;;;5050063;28;20075;-67
2021/04/28 12:20:26;;;;;;;10.88;8.48;;;23.50;29.10;;;;;;5055121;28;20037;-64
2021/04/28 12:22:52;;;;;;;13.82;8.40;;;24.10;29.30;;;;;;5063775;28;20035;-64
2021/04/28 12:25:19;;;;;;;13.55;8.93;;;24.60;29.30;;;;;;5071136;28;20028;-68
2021/04/28 12:27:47;;;;;;;10.77;7.80;;;25.00;28.50;;;;;;5064377;28;20029;-68
2021/04/28 12:30:19;;;;;;;15.50;9.25;;;25.30;28.40;;;;;;5059012;28;20056;-65
2021/04/28 12:32:47;;;;;;;14.10;8.40;;;25.30;28.30;;;;;;5067902;28;20021;-67
2021/04/28 12:35:23;;;;;;;13.38;8.25;;;24.70;28.80;;;;;;5054725;28;20028;-64
2021/04/28 12:38:15;;;;;;;14.30;8.38;;;24.60;29.30;;;;;;5050423;28;20114;-64
2021/04/28 12:41:05;;;;;;;15.05;8.02;;;24.10;28.50;;;;;;5052235;28;20048;-65
2021/04/28 12:43:36;;;;;;;;;;;24.10;29.80;;;;;;5058365;28;20056;-64
2021/04/28 12:46:08;;;;;;;12.82;7.50;;;23.90;29.20;;;;;;5053435;28;20015;-63
2021/04/28 12:49:05;;;;;;;9.15;6.60;;;23.60;29.60;;;;;;5068077;28;20071;-67
2021/04/28 12:51:32;;;;;;;14.10;8.05;;;23.30;30.10;;;;;;5051969;28;20036;-64
2021/04/28 12:53:58;;;;;;;14.10;9.40;;;22.90;29.70;;;;;;5066051;28;20036;-64